sensor_id;sensor_type;location;lat;lon;timestamp;P1;P2;P0
30713;PMS7003;17465;47.934;33.430;2022-11-15T00:01:33;29.50;24.75;13.00
30713;PMS7003;17465;47.934;33.430;2022-11-15T00:04:03;28.75;24.25;10.25
30713;PMS7003;17465;47.934;33.430;2022-11-15T00:06:34;17.00;17.00;7.25
30713;PMS7003;17465;47.934;33.430;2022-11-15T00:09:05;31.50;29.50;15.25
30713;PMS7003;17465;47.934;33.430;2022-11-15T00:11:37;31.00;28.50;13.75
30713;PMS7003;17465;47.934;33.430;2022-11-15T00:14:08;38.25;35.25;17.50
30713;PMS7003;17465;47.934;33.430;2022-11-15T00:16:38;44.50;39.25;21.75
30713;PMS7003;17465;47.934;33.430;2022-11-15T00:19:08;32.50;30.50;17.50
30713;PMS7003;17465;47.934;33.430;2022-11-15T00:21:39;42.00;38.50;21.50
30713;PMS7003;17465;47.934;33.430;2022-11-15T00:24:09;33.25;32.00;17.75
30713;PMS7003;17465;47.934;33.430;2022-11-15T00:26:39;44.75;40.25;24.25
30713;PMS7003;17465;47.934;33.430;2022-11-15T00:29:10;38.75;34.50;21.50
30713;PMS7003;17465;47.934;33.430;2022-11-15T00:31:40;35.75;33.25;18.50
30713;PMS7003;17465;47.934;33.430;2022-11-15T00:34:11;32.25;31.50;17.50
30713;PMS7003;17465;47.934;33.430;2022-11-15T00:36:41;37.25;31.25;17.50
30713;PMS7003;17465;47.934;33.430;2022-11-15T00:39:11;29.50;26.75;17.75
30713;PMS7003;17465;47.934;33.430;2022-11-15T00:41:42;46.75;42.00;26.00
30713;PMS7003;17465;47.934;33.430;2022-11-15T00:44:13;60.00;48.50;32.00
30713;PMS7003;17465;47.934;33.430;2022-11-15T00:46:43;84.00;67.25;54.75
30713;PMS7003;17465;47.934;33.430;2022-11-15T00:49:13;86.25;68.50;57.00
30713;PMS7003;17465;47.934;33.430;2022-11-15T00:51:44;62.25;53.25;39.50
30713;PMS7003;17465;47.934;33.430;2022-11-15T00:54:14;51.75;42.00;25.75
30713;PMS7003;17465;47.934;33.430;2022-11-15T00:56:44;36.50;33.25;19.50
30713;PMS7003;17465;47.934;33.430;2022-11-15T00:59:15;45.00;40.75;24.25
30713;PMS7003;17465;47.934;33.430;2022-11-15T01:01:45;38.25;35.25;19.75
30713;PMS7003;17465;47.934;33.430;2022-11-15T01:04:16;33.50;24.50;13.75
30713;PMS7003;17465;47.934;33.430;2022-11-15T01:06:46;36.75;35.00;17.75
30713;PMS7003;17465;47.934;33.430;2022-11-15T01:09:17;45.50;42.50;24.00
30713;PMS7003;17465;47.934;33.430;2022-11-15T01:11:48;42.50;37.00;23.50
30713;PMS7003;17465;47.934;33.430;2022-11-15T01:14:19;45.00;41.25;24.25
30713;PMS7003;17465;47.934;33.430;2022-11-15T01:16:52;31.75;29.00;17.00
30713;PMS7003;17465;47.934;33.430;2022-11-15T01:19:22;36.75;32.25;18.25
30713;PMS7003;17465;47.934;33.430;2022-11-15T01:21:53;30.00;27.25;16.25
30713;PMS7003;17465;47.934;33.430;2022-11-15T01:24:23;38.00;35.00;23.50
30713;PMS7003;17465;47.934;33.430;2022-11-15T01:26:54;32.00;30.75;18.00
30713;PMS7003;17465;47.934;33.430;2022-11-15T01:29:25;37.75;34.00;19.75
30713;PMS7003;17465;47.934;33.430;2022-11-15T01:31:57;38.25;34.50;20.00
30713;PMS7003;17465;47.934;33.430;2022-11-15T01:34:27;36.25;33.50;20.50
30713;PMS7003;17465;47.934;33.430;2022-11-15T01:36:58;34.75;31.25;18.00
30713;PMS7003;17465;47.934;33.430;2022-11-15T01:39:29;43.50;37.75;22.75
30713;PMS7003;17465;47.934;33.430;2022-11-15T01:42:00;37.00;35.00;20.00
30713;PMS7003;17465;47.934;33.430;2022-11-15T01:47:14;44.00;40.50;23.25
30713;PMS7003;17465;47.934;33.430;2022-11-15T01:49:50;45.25;40.75;22.00
30713;PMS7003;17465;47.934;33.430;2022-11-15T01:52:24;38.00;35.00;22.25
30713;PMS7003;17465;47.934;33.430;2022-11-15T01:55:21;34.25;31.75;20.00
30713;PMS7003;17465;47.934;33.430;2022-11-15T01:57:50;41.50;37.75;23.50
30713;PMS7003;17465;47.934;33.430;2022-11-15T02:00:21;41.00;37.75;23.25
30713;PMS7003;17465;47.934;33.430;2022-11-15T02:02:53;45.25;41.25;26.00
30713;PMS7003;17465;47.934;33.430;2022-11-15T02:05:24;53.00;41.00;26.75
30713;PMS7003;17465;47.934;33.430;2022-11-15T02:07:54;36.00;36.00;23.75
30713;PMS7003;17465;47.934;33.430;2022-11-15T02:10:26;46.25;43.25;27.00
30713;PMS7003;17465;47.934;33.430;2022-11-15T02:12:57;53.25;42.25;25.00
30713;PMS7003;17465;47.934;33.430;2022-11-15T02:15:33;40.50;35.00;22.75
30713;PMS7003;17465;47.934;33.430;2022-11-15T02:18:29;43.25;36.50;23.25
30713;PMS7003;17465;47.934;33.430;2022-11-15T02:21:05;43.50;38.50;22.00
30713;PMS7003;17465;47.934;33.430;2022-11-15T02:29:36;39.50;37.50;25.50
30713;PMS7003;17465;47.934;33.430;2022-11-15T02:32:18;48.00;42.25;27.00
30713;PMS7003;17465;47.934;33.430;2022-11-15T02:37:51;46.50;42.00;27.00
30713;PMS7003;17465;47.934;33.430;2022-11-15T02:40:45;14.00;9.25;0.00
30713;PMS7003;17465;47.934;33.430;2022-11-15T02:43:35;36.25;34.50;22.25
30713;PMS7003;17465;47.934;33.430;2022-11-15T02:49:04;43.75;36.75;23.00
30713;PMS7003;17465;47.934;33.430;2022-11-15T02:51:35;37.25;36.50;20.25
30713;PMS7003;17465;47.934;33.430;2022-11-15T02:54:06;43.50;40.00;24.50
30713;PMS7003;17465;47.934;33.430;2022-11-15T02:56:39;35.25;32.50;22.50
30713;PMS7003;17465;47.934;33.430;2022-11-15T03:02:18;41.75;37.00;20.75
30713;PMS7003;17465;47.934;33.430;2022-11-15T03:13:26;35.00;31.50;19.00
30713;PMS7003;17465;47.934;33.430;2022-11-15T03:16:22;51.75;41.75;26.75
30713;PMS7003;17465;47.934;33.430;2022-11-15T03:19:02;57.00;47.50;33.00
30713;PMS7003;17465;47.934;33.430;2022-11-15T03:21:36;43.00;40.00;24.50
30713;PMS7003;17465;47.934;33.430;2022-11-15T03:24:09;46.50;40.75;27.00
30713;PMS7003;17465;47.934;33.430;2022-11-15T03:26:43;45.00;42.50;26.25
30713;PMS7003;17465;47.934;33.430;2022-11-15T03:29:17;41.50;39.00;24.00
30713;PMS7003;17465;47.934;33.430;2022-11-15T03:31:51;25.25;23.50;17.50
30713;PMS7003;17465;47.934;33.430;2022-11-15T03:34:31;56.25;45.00;27.00
30713;PMS7003;17465;47.934;33.430;2022-11-15T03:37:08;41.50;38.25;24.25
30713;PMS7003;17465;47.934;33.430;2022-11-15T03:39:42;43.00;41.75;26.50
30713;PMS7003;17465;47.934;33.430;2022-11-15T03:42:26;46.75;42.00;27.00
30713;PMS7003;17465;47.934;33.430;2022-11-15T03:45:01;34.00;31.75;14.00
30713;PMS7003;17465;47.934;33.430;2022-11-15T03:47:39;29.75;29.50;20.50
30713;PMS7003;17465;47.934;33.430;2022-11-15T03:50:17;48.00;44.00;26.25
30713;PMS7003;17465;47.934;33.430;2022-11-15T03:52:50;43.75;39.50;25.50
30713;PMS7003;17465;47.934;33.430;2022-11-15T03:55:22;38.50;34.25;14.00
30713;PMS7003;17465;47.934;33.430;2022-11-15T03:57:54;41.25;39.25;26.00
30713;PMS7003;17465;47.934;33.430;2022-11-15T04:00:26;41.75;37.25;23.50
30713;PMS7003;17465;47.934;33.430;2022-11-15T04:02:57;51.25;43.00;26.75
30713;PMS7003;17465;47.934;33.430;2022-11-15T04:05:28;37.00;34.75;22.00
30713;PMS7003;17465;47.934;33.430;2022-11-15T04:07:59;51.25;43.25;26.25
30713;PMS7003;17465;47.934;33.430;2022-11-15T04:10:30;34.00;34.00;19.50
30713;PMS7003;17465;47.934;33.430;2022-11-15T04:13:01;49.25;41.00;23.75
30713;PMS7003;17465;47.934;33.430;2022-11-15T04:15:37;39.00;37.75;23.25
30713;PMS7003;17465;47.934;33.430;2022-11-15T04:18:04;41.25;40.50;24.50
30713;PMS7003;17465;47.934;33.430;2022-11-15T04:20:35;53.25;46.75;29.25
30713;PMS7003;17465;47.934;33.430;2022-11-15T04:23:09;49.50;43.50;26.00
30713;PMS7003;17465;47.934;33.430;2022-11-15T04:25:41;56.00;44.25;26.50
30713;PMS7003;17465;47.934;33.430;2022-11-15T04:28:14;44.50;40.75;26.75
30713;PMS7003;17465;47.934;33.430;2022-11-15T04:30:44;36.50;34.50;21.50
30713;PMS7003;17465;47.934;33.430;2022-11-15T04:33:15;43.00;41.00;23.25
30713;PMS7003;17465;47.934;33.430;2022-11-15T04:35:47;45.00;41.00;25.25
30713;PMS7003;17465;47.934;33.430;2022-11-15T04:38:17;39.75;34.25;19.00
30713;PMS7003;17465;47.934;33.430;2022-11-15T04:40:48;40.75;34.00;17.75
30713;PMS7003;17465;47.934;33.430;2022-11-15T04:43:18;36.00;35.00;18.25
30713;PMS7003;17465;47.934;33.430;2022-11-15T04:45:49;40.25;37.25;23.00
30713;PMS7003;17465;47.934;33.430;2022-11-15T04:48:19;41.00;37.00;20.00
30713;PMS7003;17465;47.934;33.430;2022-11-15T04:50:50;38.00;36.50;19.25
30713;PMS7003;17465;47.934;33.430;2022-11-15T04:53:20;43.00;37.50;19.75
30713;PMS7003;17465;47.934;33.430;2022-11-15T04:55:51;35.00;30.25;20.25
30713;PMS7003;17465;47.934;33.430;2022-11-15T04:58:21;32.75;31.50;20.75
30713;PMS7003;17465;47.934;33.430;2022-11-15T05:00:52;34.00;31.75;19.75
30713;PMS7003;17465;47.934;33.430;2022-11-15T05:03:22;33.50;33.50;21.75
30713;PMS7003;17465;47.934;33.430;2022-11-15T05:05:53;32.00;30.75;19.00
30713;PMS7003;17465;47.934;33.430;2022-11-15T05:08:25;35.50;31.25;18.25
30713;PMS7003;17465;47.934;33.430;2022-11-15T05:10:55;36.50;32.25;21.25
30713;PMS7003;17465;47.934;33.430;2022-11-15T05:13:26;40.50;38.75;21.75
30713;PMS7003;17465;47.934;33.430;2022-11-15T05:15:57;36.00;32.25;20.50
30713;PMS7003;17465;47.934;33.430;2022-11-15T05:18:27;27.75;26.75;16.50
30713;PMS7003;17465;47.934;33.430;2022-11-15T05:21:04;33.50;31.50;16.50
30713;PMS7003;17465;47.934;33.430;2022-11-15T05:23:35;48.00;38.75;21.25
30713;PMS7003;17465;47.934;33.430;2022-11-15T05:26:07;34.00;31.25;20.25
30713;PMS7003;17465;47.934;33.430;2022-11-15T05:28:38;38.50;35.50;20.75
30713;PMS7003;17465;47.934;33.430;2022-11-15T05:31:11;39.75;35.50;22.75
30713;PMS7003;17465;47.934;33.430;2022-11-15T05:33:46;42.00;36.50;21.25
30713;PMS7003;17465;47.934;33.430;2022-11-15T05:36:29;43.50;39.50;25.50
30713;PMS7003;17465;47.934;33.430;2022-11-15T05:39:01;44.50;41.25;23.00
30713;PMS7003;17465;47.934;33.430;2022-11-15T05:41:37;41.75;37.50;25.25
30713;PMS7003;17465;47.934;33.430;2022-11-15T05:44:26;39.00;38.75;22.50
30713;PMS7003;17465;47.934;33.430;2022-11-15T05:46:57;45.00;40.50;24.75
30713;PMS7003;17465;47.934;33.430;2022-11-15T05:49:30;39.75;37.25;15.75
30713;PMS7003;17465;47.934;33.430;2022-11-15T05:52:03;33.50;30.00;15.00
30713;PMS7003;17465;47.934;33.430;2022-11-15T05:54:37;42.75;38.25;22.00
30713;PMS7003;17465;47.934;33.430;2022-11-15T05:57:29;42.75;40.25;23.25
30713;PMS7003;17465;47.934;33.430;2022-11-15T06:00:00;33.25;31.50;16.75
30713;PMS7003;17465;47.934;33.430;2022-11-15T06:06:16;44.75;39.75;22.75
30713;PMS7003;17465;47.934;33.430;2022-11-15T06:08:48;46.00;39.25;20.50
30713;PMS7003;17465;47.934;33.430;2022-11-15T06:11:18;24.75;24.00;19.75
30713;PMS7003;17465;47.934;33.430;2022-11-15T06:13:58;53.50;43.50;27.00
30713;PMS7003;17465;47.934;33.430;2022-11-15T06:16:29;41.75;38.25;24.25
30713;PMS7003;17465;47.934;33.430;2022-11-15T06:19:00;50.25;43.50;28.50
30713;PMS7003;17465;47.934;33.430;2022-11-15T06:21:33;46.00;39.25;25.25
30713;PMS7003;17465;47.934;33.430;2022-11-15T06:26:58;46.00;40.75;25.75
30713;PMS7003;17465;47.934;33.430;2022-11-15T06:29:31;50.00;45.75;27.75
30713;PMS7003;17465;47.934;33.430;2022-11-15T06:32:02;35.75;34.50;22.75
30713;PMS7003;17465;47.934;33.430;2022-11-15T06:34:33;50.75;42.25;26.25
30713;PMS7003;17465;47.934;33.430;2022-11-15T06:37:04;59.25;50.00;37.25
30713;PMS7003;17465;47.934;33.430;2022-11-15T06:39:35;51.50;44.50;30.00
30713;PMS7003;17465;47.934;33.430;2022-11-15T06:42:05;48.75;43.50;28.25
30713;PMS7003;17465;47.934;33.430;2022-11-15T06:44:37;50.00;41.00;25.00
30713;PMS7003;17465;47.934;33.430;2022-11-15T06:47:08;50.75;42.75;26.00
30713;PMS7003;17465;47.934;33.430;2022-11-15T06:49:39;54.50;46.50;28.50
30713;PMS7003;17465;47.934;33.430;2022-11-15T06:52:09;56.25;45.50;28.50
30713;PMS7003;17465;47.934;33.430;2022-11-15T06:54:45;45.50;40.50;25.25
30713;PMS7003;17465;47.934;33.430;2022-11-15T06:57:23;37.25;35.00;21.75
30713;PMS7003;17465;47.934;33.430;2022-11-15T07:00:06;44.00;39.00;19.75
30713;PMS7003;17465;47.934;33.430;2022-11-15T07:05:39;43.00;40.75;26.00
30713;PMS7003;17465;47.934;33.430;2022-11-15T07:08:12;41.75;37.25;19.00
30713;PMS7003;17465;47.934;33.430;2022-11-15T07:10:43;45.50;41.25;21.00
30713;PMS7003;17465;47.934;33.430;2022-11-15T07:13:17;59.50;49.00;29.25
30713;PMS7003;17465;47.934;33.430;2022-11-15T07:15:49;58.50;47.50;30.00
30713;PMS7003;17465;47.934;33.430;2022-11-15T07:18:26;59.25;48.50;31.00
30713;PMS7003;17465;47.934;33.430;2022-11-15T07:21:00;41.75;35.25;13.75
30713;PMS7003;17465;47.934;33.430;2022-11-15T07:23:30;63.75;50.50;30.50
30713;PMS7003;17465;47.934;33.430;2022-11-15T07:26:33;57.25;46.75;26.75
30713;PMS7003;17465;47.934;33.430;2022-11-15T07:29:08;66.25;52.50;33.25
30713;PMS7003;17465;47.934;33.430;2022-11-15T07:31:39;54.00;47.00;27.50
30713;PMS7003;17465;47.934;33.430;2022-11-15T07:34:12;54.50;45.75;30.25
30713;PMS7003;17465;47.934;33.430;2022-11-15T07:36:43;46.25;41.00;25.75
30713;PMS7003;17465;47.934;33.430;2022-11-15T07:39:30;56.25;47.25;29.00
30713;PMS7003;17465;47.934;33.430;2022-11-15T07:41:46;45.75;40.75;25.25
30713;PMS7003;17465;47.934;33.430;2022-11-15T07:44:17;51.00;43.50;26.50
30713;PMS7003;17465;47.934;33.430;2022-11-15T07:46:53;46.25;41.75;27.75
30713;PMS7003;17465;47.934;33.430;2022-11-15T07:49:38;48.75;41.75;27.75
30713;PMS7003;17465;47.934;33.430;2022-11-15T07:52:07;41.00;37.00;15.75
30713;PMS7003;17465;47.934;33.430;2022-11-15T07:54:38;57.75;44.00;26.00
30713;PMS7003;17465;47.934;33.430;2022-11-15T07:57:12;34.00;33.75;16.50
30713;PMS7003;17465;47.934;33.430;2022-11-15T07:59:46;39.25;36.75;22.25
30713;PMS7003;17465;47.934;33.430;2022-11-15T08:02:16;45.50;40.00;24.75
30713;PMS7003;17465;47.934;33.430;2022-11-15T08:04:48;42.75;35.25;23.50
30713;PMS7003;17465;47.934;33.430;2022-11-15T08:07:22;37.25;35.75;18.50
30713;PMS7003;17465;47.934;33.430;2022-11-15T08:10:12;47.50;40.50;25.25
30713;PMS7003;17465;47.934;33.430;2022-11-15T08:12:37;41.25;38.75;21.75
30713;PMS7003;17465;47.934;33.430;2022-11-15T08:15:15;32.50;26.25;7.50
30713;PMS7003;17465;47.934;33.430;2022-11-15T08:17:55;42.25;37.25;24.00
30713;PMS7003;17465;47.934;33.430;2022-11-15T08:20:28;40.25;34.25;19.75
30713;PMS7003;17465;47.934;33.430;2022-11-15T08:23:00;39.50;36.00;22.50
30713;PMS7003;17465;47.934;33.430;2022-11-15T08:25:41;38.25;37.25;20.75
30713;PMS7003;17465;47.934;33.430;2022-11-15T08:28:16;43.75;40.50;24.50
30713;PMS7003;17465;47.934;33.430;2022-11-15T08:30:47;37.75;37.00;24.50
30713;PMS7003;17465;47.934;33.430;2022-11-15T08:33:21;28.50;20.50;16.75
30713;PMS7003;17465;47.934;33.430;2022-11-15T08:35:56;40.25;38.75;23.75
30713;PMS7003;17465;47.934;33.430;2022-11-15T08:38:31;46.00;41.50;26.00
30713;PMS7003;17465;47.934;33.430;2022-11-15T08:41:34;29.50;25.25;20.25
30713;PMS7003;17465;47.934;33.430;2022-11-15T08:44:04;44.75;39.00;26.25
30713;PMS7003;17465;47.934;33.430;2022-11-15T08:46:41;55.50;45.00;28.25
30713;PMS7003;17465;47.934;33.430;2022-11-15T08:49:11;45.50;38.00;23.25
30713;PMS7003;17465;47.934;33.430;2022-11-15T08:51:50;39.00;35.75;23.75
30713;PMS7003;17465;47.934;33.430;2022-11-15T08:54:22;45.00;40.50;24.25
30713;PMS7003;17465;47.934;33.430;2022-11-15T08:56:48;31.50;29.00;16.75
30713;PMS7003;17465;47.934;33.430;2022-11-15T08:59:19;31.75;29.00;17.50
30713;PMS7003;17465;47.934;33.430;2022-11-15T09:01:49;24.50;23.50;12.00
30713;PMS7003;17465;47.934;33.430;2022-11-15T09:04:21;31.50;26.50;17.50
30713;PMS7003;17465;47.934;33.430;2022-11-15T09:06:53;19.25;16.75;9.75
30713;PMS7003;17465;47.934;33.430;2022-11-15T09:09:23;25.25;24.25;15.50
30713;PMS7003;17465;47.934;33.430;2022-11-15T09:14:55;21.25;20.00;14.00
30713;PMS7003;17465;47.934;33.430;2022-11-15T09:17:26;24.50;22.75;12.75
30713;PMS7003;17465;47.934;33.430;2022-11-15T09:19:57;29.00;26.00;17.25
30713;PMS7003;17465;47.934;33.430;2022-11-15T09:22:27;22.25;22.25;12.25
30713;PMS7003;17465;47.934;33.430;2022-11-15T09:25:01;20.00;19.00;13.50
30713;PMS7003;17465;47.934;33.430;2022-11-15T09:28:15;20.75;20.75;12.25
30713;PMS7003;17465;47.934;33.430;2022-11-15T09:30:46;25.00;21.00;12.25
30713;PMS7003;17465;47.934;33.430;2022-11-15T09:33:16;21.75;19.50;11.00
30713;PMS7003;17465;47.934;33.430;2022-11-15T09:35:47;21.25;21.25;14.50
30713;PMS7003;17465;47.934;33.430;2022-11-15T09:38:17;14.50;14.50;8.00
30713;PMS7003;17465;47.934;33.430;2022-11-15T09:46:45;27.25;25.75;15.00
30713;PMS7003;17465;47.934;33.430;2022-11-15T09:49:33;33.75;29.50;18.25
30713;PMS7003;17465;47.934;33.430;2022-11-15T09:52:04;27.00;22.25;15.00
30713;PMS7003;17465;47.934;33.430;2022-11-15T09:54:37;23.00;22.75;14.00
30713;PMS7003;17465;47.934;33.430;2022-11-15T09:57:17;25.50;23.25;13.00
30713;PMS7003;17465;47.934;33.430;2022-11-15T10:05:37;37.75;34.25;21.50
30713;PMS7003;17465;47.934;33.430;2022-11-15T10:11:17;27.25;22.25;14.00
30713;PMS7003;17465;47.934;33.430;2022-11-15T10:14:15;21.50;19.50;12.00
30713;PMS7003;17465;47.934;33.430;2022-11-15T10:19:47;34.50;33.50;18.25
30713;PMS7003;17465;47.934;33.430;2022-11-15T10:22:25;28.00;27.25;17.00
30713;PMS7003;17465;47.934;33.430;2022-11-15T10:25:45;30.50;30.50;21.00
30713;PMS7003;17465;47.934;33.430;2022-11-15T10:31:00;26.25;25.00;16.25
30713;PMS7003;17465;47.934;33.430;2022-11-15T10:33:32;26.25;24.75;18.25
30713;PMS7003;17465;47.934;33.430;2022-11-15T10:36:20;41.50;38.75;27.25
30713;PMS7003;17465;47.934;33.430;2022-11-15T10:38:53;17.25;17.25;7.50
30713;PMS7003;17465;47.934;33.430;2022-11-15T10:44:09;29.00;29.00;20.50
30713;PMS7003;17465;47.934;33.430;2022-11-15T10:49:30;46.25;40.75;25.25
30713;PMS7003;17465;47.934;33.430;2022-11-15T10:55:05;43.25;38.75;28.00
30713;PMS7003;17465;47.934;33.430;2022-11-15T10:57:48;38.50;35.50;24.25
30713;PMS7003;17465;47.934;33.430;2022-11-15T11:00:36;40.50;37.25;24.25
30713;PMS7003;17465;47.934;33.430;2022-11-15T11:03:24;30.00;29.50;20.25
30713;PMS7003;17465;47.934;33.430;2022-11-15T11:06:04;46.25;39.50;25.50
30713;PMS7003;17465;47.934;33.430;2022-11-15T11:08:40;41.00;36.00;25.25
30713;PMS7003;17465;47.934;33.430;2022-11-15T11:11:45;46.75;42.00;25.50
30713;PMS7003;17465;47.934;33.430;2022-11-15T11:17:09;23.50;22.50;15.00
30713;PMS7003;17465;47.934;33.430;2022-11-15T11:22:36;19.25;17.50;10.00
30713;PMS7003;17465;47.934;33.430;2022-11-15T11:31:13;22.75;19.50;12.50
30713;PMS7003;17465;47.934;33.430;2022-11-15T11:43:01;18.50;16.75;13.50
30713;PMS7003;17465;47.934;33.430;2022-11-15T11:45:15;19.25;19.25;11.50
30713;PMS7003;17465;47.934;33.430;2022-11-15T11:50:39;24.25;20.75;13.00
30713;PMS7003;17465;47.934;33.430;2022-11-15T11:55:47;20.50;18.75;13.00
30713;PMS7003;17465;47.934;33.430;2022-11-15T11:58:45;17.00;13.75;9.50
30713;PMS7003;17465;47.934;33.430;2022-11-15T12:01:23;14.50;14.50;7.75
30713;PMS7003;17465;47.934;33.430;2022-11-15T12:04:09;15.00;13.00;9.00
30713;PMS7003;17465;47.934;33.430;2022-11-15T12:07:08;16.00;13.50;9.25
30713;PMS7003;17465;47.934;33.430;2022-11-15T12:09:44;12.00;11.25;8.00
30713;PMS7003;17465;47.934;33.430;2022-11-15T12:12:38;20.25;18.75;11.25
30713;PMS7003;17465;47.934;33.430;2022-11-15T12:26:11;18.50;18.50;11.50
30713;PMS7003;17465;47.934;33.430;2022-11-15T12:31:38;16.25;13.00;9.75
30713;PMS7003;17465;47.934;33.430;2022-11-15T12:34:46;16.50;16.50;10.00
30713;PMS7003;17465;47.934;33.430;2022-11-15T12:45:45;39.50;36.00;26.00
30713;PMS7003;17465;47.934;33.430;2022-11-15T12:51:11;12.00;12.00;8.50
30713;PMS7003;17465;47.934;33.430;2022-11-15T12:53:55;24.00;22.25;14.50
30713;PMS7003;17465;47.934;33.430;2022-11-15T12:56:18;27.00;25.25;20.25
30713;PMS7003;17465;47.934;33.430;2022-11-15T13:10:41;16.50;16.50;10.75
30713;PMS7003;17465;47.934;33.430;2022-11-15T13:16:36;10.25;10.25;5.50
30713;PMS7003;17465;47.934;33.430;2022-11-15T13:19:09;17.00;15.50;10.00
30713;PMS7003;17465;47.934;33.430;2022-11-15T13:21:47;20.00;17.25;9.50
30713;PMS7003;17465;47.934;33.430;2022-11-15T13:24:16;24.00;23.25;16.25
30713;PMS7003;17465;47.934;33.430;2022-11-15T13:26:47;25.00;24.00;17.00
30713;PMS7003;17465;47.934;33.430;2022-11-15T13:29:19;18.50;18.50;14.75
30713;PMS7003;17465;47.934;33.430;2022-11-15T13:31:50;20.50;20.50;14.75
30713;PMS7003;17465;47.934;33.430;2022-11-15T13:34:23;19.75;19.75;15.50
30713;PMS7003;17465;47.934;33.430;2022-11-15T13:36:55;23.25;22.00;16.00
30713;PMS7003;17465;47.934;33.430;2022-11-15T13:39:27;25.75;24.50;15.00
30713;PMS7003;17465;47.934;33.430;2022-11-15T13:42:01;24.50;24.50;15.50
30713;PMS7003;17465;47.934;33.430;2022-11-15T13:44:37;17.00;17.00;10.00
30713;PMS7003;17465;47.934;33.430;2022-11-15T13:49:48;23.50;22.25;16.50
30713;PMS7003;17465;47.934;33.430;2022-11-15T13:52:22;23.00;22.75;16.50
30713;PMS7003;17465;47.934;33.430;2022-11-15T13:57:36;35.25;34.25;23.00
30713;PMS7003;17465;47.934;33.430;2022-11-15T14:03:11;31.25;31.25;23.50
30713;PMS7003;17465;47.934;33.430;2022-11-15T14:06:24;34.00;28.25;17.00
30713;PMS7003;17465;47.934;33.430;2022-11-15T14:11:52;27.00;26.25;15.00
30713;PMS7003;17465;47.934;33.430;2022-11-15T14:14:25;22.00;20.25;14.50
30713;PMS7003;17465;47.934;33.430;2022-11-15T14:16:58;16.25;16.25;10.00
30713;PMS7003;17465;47.934;33.430;2022-11-15T14:22:29;25.25;24.75;15.50
30713;PMS7003;17465;47.934;33.430;2022-11-15T14:25:16;31.50;29.75;20.00
30713;PMS7003;17465;47.934;33.430;2022-11-15T14:30:40;32.00;28.25;17.25
30713;PMS7003;17465;47.934;33.430;2022-11-15T14:33:20;32.25;28.50;18.25
30713;PMS7003;17465;47.934;33.430;2022-11-15T14:36:05;37.25;34.75;22.25
30713;PMS7003;17465;47.934;33.430;2022-11-15T18:16:42;45.75;39.00;25.25
30713;PMS7003;17465;47.934;33.430;2022-11-15T18:23:04;44.25;39.50;26.25
30713;PMS7003;17465;47.934;33.430;2022-11-15T18:29:48;40.50;36.25;24.25
30713;PMS7003;17465;47.934;33.430;2022-11-15T18:51:12;65.25;53.75;38.50
30713;PMS7003;17465;47.934;33.430;2022-11-15T18:53:50;66.25;54.50;38.75
30713;PMS7003;17465;47.934;33.430;2022-11-15T18:56:19;71.00;56.75;37.00
30713;PMS7003;17465;47.934;33.430;2022-11-15T18:58:52;69.25;55.50;39.25
30713;PMS7003;17465;47.934;33.430;2022-11-15T19:01:25;62.25;53.25;35.00
30713;PMS7003;17465;47.934;33.430;2022-11-15T19:04:34;65.25;54.25;36.00
30713;PMS7003;17465;47.934;33.430;2022-11-15T19:07:04;70.25;56.75;38.00
30713;PMS7003;17465;47.934;33.430;2022-11-15T19:09:37;68.25;55.00;34.25
30713;PMS7003;17465;47.934;33.430;2022-11-15T19:12:20;71.00;57.25;38.00
30713;PMS7003;17465;47.934;33.430;2022-11-15T19:14:50;66.75;54.00;34.25
30713;PMS7003;17465;47.934;33.430;2022-11-15T19:17:21;55.00;43.25;30.00
30713;PMS7003;17465;47.934;33.430;2022-11-15T19:22:49;57.75;44.50;25.75
30713;PMS7003;17465;47.934;33.430;2022-11-15T19:25:53;52.00;44.25;24.00
30713;PMS7003;17465;47.934;33.430;2022-11-15T19:29:09;38.75;35.25;24.75
30713;PMS7003;17465;47.934;33.430;2022-11-15T19:32:38;52.00;40.50;23.75
30713;PMS7003;17465;47.934;33.430;2022-11-15T19:35:15;49.25;42.00;22.25
30713;PMS7003;17465;47.934;33.430;2022-11-15T19:37:57;47.75;42.00;25.00
30713;PMS7003;17465;47.934;33.430;2022-11-15T19:40:25;41.00;37.50;24.00
30713;PMS7003;17465;47.934;33.430;2022-11-15T19:42:56;54.50;43.00;24.00
30713;PMS7003;17465;47.934;33.430;2022-11-15T19:45:55;38.75;35.75;20.25
30713;PMS7003;17465;47.934;33.430;2022-11-15T19:49:03;37.75;34.25;18.25
30713;PMS7003;17465;47.934;33.430;2022-11-15T20:19:34;40.25;36.75;22.25
30713;PMS7003;17465;47.934;33.430;2022-11-15T20:22:20;57.25;46.25;28.50
30713;PMS7003;17465;47.934;33.430;2022-11-15T20:28:07;56.00;46.25;29.50
30713;PMS7003;17465;47.934;33.430;2022-11-15T20:30:57;52.50;43.00;27.25
30713;PMS7003;17465;47.934;33.430;2022-11-15T20:33:42;46.75;39.75;25.25
30713;PMS7003;17465;47.934;33.430;2022-11-15T20:39:30;42.50;36.75;18.50
30713;PMS7003;17465;47.934;33.430;2022-11-15T20:42:02;47.00;40.50;23.50
30713;PMS7003;17465;47.934;33.430;2022-11-15T20:48:25;48.00;40.25;24.25
30713;PMS7003;17465;47.934;33.430;2022-11-15T20:51:30;51.00;44.00;24.25
30713;PMS7003;17465;47.934;33.430;2022-11-15T20:53:54;57.50;47.50;29.50
30713;PMS7003;17465;47.934;33.430;2022-11-15T20:56:30;60.00;50.25;33.50
30713;PMS7003;17465;47.934;33.430;2022-11-15T20:59:02;70.25;56.75;38.00
30713;PMS7003;17465;47.934;33.430;2022-11-15T21:01:33;70.75;57.75;38.00
30713;PMS7003;17465;47.934;33.430;2022-11-15T21:04:17;73.25;59.50;41.00
30713;PMS7003;17465;47.934;33.430;2022-11-15T21:08:21;73.50;59.25;39.00
30713;PMS7003;17465;47.934;33.430;2022-11-15T21:10:54;76.75;60.50;40.50
30713;PMS7003;17465;47.934;33.430;2022-11-15T21:13:50;81.25;64.50;43.75
30713;PMS7003;17465;47.934;33.430;2022-11-15T21:16:16;78.00;63.75;43.00
30713;PMS7003;17465;47.934;33.430;2022-11-15T21:25:57;58.25;49.00;33.75
30713;PMS7003;17465;47.934;33.430;2022-11-15T21:28:35;58.25;49.75;32.00
30713;PMS7003;17465;47.934;33.430;2022-11-15T21:34:22;54.25;45.75;30.00
30713;PMS7003;17465;47.934;33.430;2022-11-15T21:36:58;43.75;40.00;25.00
30713;PMS7003;17465;47.934;33.430;2022-11-15T21:39:29;52.50;42.75;28.00
30713;PMS7003;17465;47.934;33.430;2022-11-15T21:41:59;52.25;42.50;28.00
30713;PMS7003;17465;47.934;33.430;2022-11-15T21:44:31;62.25;51.00;34.00
30713;PMS7003;17465;47.934;33.430;2022-11-15T21:47:02;58.00;48.50;31.50
30713;PMS7003;17465;47.934;33.430;2022-11-15T21:49:33;59.00;48.25;32.00